| Date | Time | Temp. (oF) | Dew Point (oF) | Rel. Hum. (%) | Press. (in.) | Wind Dir. | Wind Speed (mph) | Hourly Rainfall (in.) |
|
|---|---|---|---|---|---|---|---|---|---|
| 1 | 08/24 | 00:00 | 64 | 62 | 94 | 30.06 | NW | 0 | 0.00 |
| 2 | 08/23 | 23:00 | 65 | 60 | 86 | 30.05 | NW | 0 | 0.00 |
| 3 | 08/23 | 22:00 | 68 | 60 | 77 | 30.04 | NNW | 0 | 0.00 |
| 4 | 08/23 | 21:00 | 72 | 60 | 68 | 30.02 | NNW | 0 | 0.00 |
| 5 | 08/23 | 20:00 | 76 | 58 | 54 | 30.00 | NNW | 1 | 0.00 |
| 6 | 08/23 | 19:00 | 78 | 57 | 50 | 29.99 | NNW | 3 | 0.00 |
| 7 | 08/23 | 18:00 | 80 | 58 | 49 | 29.99 | N | 4 | 0.00 |
| 8 | 08/23 | 17:00 | 81 | 59 | 49 | 29.99 | NW | 7 | 0.00 |
| 9 | 08/23 | 16:00 | 80 | 60 | 51 | 30.00 | S | 2 | 0.00 |
| 10 | 08/23 | 15:00 | 81 | 61 | 51 | 30.00 | SSW | 5 | 0.00 |
| 11 | 08/23 | 14:00 | 80 | 61 | 53 | 30.01 | N | 1 | 0.00 |
| 12 | miss | miss | miss | miss | miss | miss | miss | miss | |
| 13 | 08/23 | 13:46 | 81 | 59 | 49 | 30.01 | W | 5 | 0.00 |
| 14 | miss | miss | miss | miss | miss | miss | miss | miss | |
| 15 | 08/23 | 13:44 | 81 | 61 | 52 | 30.01 | SSW | 5 | 0.00 |
| 16 | miss | miss | miss | miss | miss | miss | miss | miss | |
| 17 | 08/23 | 13:42 | 81 | 61 | 51 | 30.01 | SE | 7 | 0.00 |
| 18 | miss | miss | miss | miss | miss | miss | miss | miss | |
| 19 | 08/23 | 13:40 | 80 | 59 | 50 | 30.01 | NW | 4 | 0.00 |
| 20 | miss | miss | miss | miss | miss | miss | miss | miss | |
| 21 | 08/23 | 13:38 | 80 | 59 | 50 | 30.01 | S | 9 | 0.00 |
| 22 | miss | miss | miss | miss | miss | miss | miss | miss | |
| 23 | 08/23 | 13:36 | 80 | 60 | 52 | 30.01 | WNW | 4 | 0.00 |
| 24 | miss | miss | miss | miss | miss | miss | miss | miss | |
| 25 | 08/23 | 13:34 | 80 | 59 | 50 | 30.01 | N | 7 | 0.00 |
| 26 | miss | miss | miss | miss | miss | miss | miss | miss | |
| 27 | 08/23 | 13:34 | 80 | 59 | 50 | 30.01 | N | 7 | 0.00 |
| 28 | miss | miss | miss | miss | miss | miss | miss | miss | |
| 29 | 08/23 | 13:34 | 80 | 59 | 50 | 30.01 | N | 7 | 0.00 |
| 30 | miss | miss | miss | miss | miss | miss | miss | miss | |
| 31 | 08/23 | 13:34 | 80 | 59 | 50 | 30.01 | N | 7 | 0.00 |
| 32 | miss | miss | miss | miss | miss | miss | miss | miss | |
| 33 | 08/23 | 13:34 | 80 | 59 | 50 | 30.01 | N | 7 | 0.00 |
| 34 | miss | miss | miss | miss | miss | miss | miss | miss | |
| 35 | 08/23 | 13:34 | 80 | 59 | 50 | 30.01 | N | 7 | 0.00 |
| 36 | 08/23 | 13:00 | 79 | 59 | 52 | 30.02 | WSW | 6 | 0.00 |
| 37 | 08/23 | 12:00 | 77 | 60 | 57 | 30.03 | SSW | 5 | 0.00 |
| 38 | 08/23 | 11:00 | 75 | 63 | 67 | 30.04 | S | 3 | 0.00 |
| 39 | 08/23 | 10:00 | 72 | 63 | 74 | 30.04 | S | 5 | 0.00 |
| 40 | 08/23 | 09:00 | 67 | 63 | 88 | 30.04 | S | 0 | 0.00 |
| 41 | 08/23 | 08:00 | 61 | 60 | 100 | 30.03 | SSW | 1 | 0.00 |
| 42 | 08/23 | 07:00 | 59 | 58 | 99 | 30.01 | SSW | 0 | 0.00 |
| 43 | 08/23 | 06:00 | 60 | 59 | 98 | 30.00 | W | 0 | 0.00 |
| 44 | 08/23 | 05:00 | 60 | 59 | 97 | 29.99 | SW | 0 | 0.00 |
| 45 | 08/23 | 04:00 | 61 | 60 | 97 | 30.00 | SW | 2 | 0.00 |
| 46 | 08/23 | 03:00 | 62 | 60 | 94 | 30.00 | W | 0 | 0.00 |
| 47 | 08/23 | 02:00 | 63 | 60 | 92 | 29.99 | SSW | 0 | 0.00 |
| 48 | miss | miss | miss | miss | miss | miss | miss | miss | |
| 49 | 08/23 | 01:50 | 63 | 60 | 92 | 29.99 | SW | 1 | 0.00 |
| 50 | miss | miss | miss | miss | miss | miss | miss | miss | |
| 51 | 08/23 | 01:50 | 63 | 60 | 92 | 29.99 | SW | 1 | 0.00 |
| 52 | miss | miss | miss | miss | miss | miss | miss | miss | |
| 53 | 08/23 | 01:50 | 63 | 60 | 92 | 29.99 | SW | 1 | 0.00 |
| 54 | miss | miss | miss | miss | miss | miss | miss | miss | |
| 55 | 08/23 | 01:50 | 63 | 60 | 92 | 29.99 | SW | 1 | 0.00 |
| 56 | miss | miss | miss | miss | miss | miss | miss | miss | |
| 57 | 08/23 | 01:50 | 63 | 60 | 92 | 29.99 | SW | 1 | 0.00 |
| 58 | miss | miss | miss | miss | miss | miss | miss | miss | |
| 59 | 08/23 | 01:50 | 63 | 60 | 92 | 29.99 | SW | 1 | 0.00 |
| 60 | miss | miss | miss | miss | miss | miss | miss | miss | |
| 61 | 08/23 | 01:50 | 63 | 60 | 92 | 29.99 | SW | 1 | 0.00 |
| 62 | miss | miss | miss | miss | miss | miss | miss | miss | |
| 63 | 08/23 | 01:50 | 63 | 60 | 92 | 29.99 | SW | 1 | 0.00 |
| 64 | miss | miss | miss | miss | miss | miss | miss | miss | |
| 65 | 08/23 | 01:50 | 63 | 60 | 92 | 29.99 | SW | 1 | 0.00 |
| 66 | miss | miss | miss | miss | miss | miss | miss | miss | |
| 67 | 08/23 | 01:50 | 63 | 60 | 92 | 29.99 | SW | 1 | 0.00 |
| 68 | miss | miss | miss | miss | miss | miss | miss | miss | |
| 69 | 08/23 | 01:50 | 63 | 60 | 92 | 29.99 | SW | 1 | 0.00 |
| 70 | miss | miss | miss | miss | miss | miss | miss | miss | |
| 71 | 08/23 | 01:50 | 63 | 60 | 92 | 29.99 | SW | 1 | 0.00 |
| 72 | 08/23 | 01:00 | 65 | 61 | 89 | 29.98 | WNW | 1 | 0.00 |
| 73 | 08/23 | 00:00 | 67 | 61 | 84 | 29.95 | S | 0 | 0.00 |
| 74 | 08/22 | 23:00 | 71 | 60 | 69 | 29.94 | WNW | 0 | 0.00 |
| 75 | 08/22 | 22:00 | 73 | 59 | 62 | 29.91 | WNW | 1 | 0.00 |
| 76 | 08/22 | 21:00 | 76 | 60 | 59 | 29.89 | NW | 0 | 0.00 |
| 77 | 08/22 | 20:00 | 79 | 60 | 53 | 29.87 | NW | 2 | 0.00 |
| 78 | 08/22 | 19:00 | 81 | 60 | 50 | 29.85 | NW | 4 | 0.00 |
| 79 | 08/22 | 18:00 | 83 | 59 | 46 | 29.85 | W | 7 | 0.00 |
| 80 | 08/22 | 17:00 | 84 | 60 | 46 | 29.87 | NNW | 3 | 0.00 |
| 81 | 08/22 | 16:00 | 86 | 60 | 43 | 29.87 | NW | 6 | 0.00 |
| 82 | 08/22 | 15:00 | 84 | 60 | 45 | 29.89 | WNW | 6 | 0.00 |
| 83 | 08/22 | 14:00 | 84 | 60 | 46 | 29.89 | N | 10 | 0.00 |
| 84 | 08/22 | 13:00 | 82 | 63 | 53 | 29.89 | NW | 9 | 0.00 |
| 85 | 08/22 | 12:00 | 83 | 65 | 56 | 29.89 | W | 2 | 0.00 |
| 86 | 08/22 | 11:00 | 81 | 66 | 61 | 29.90 | W | 9 | 0.00 |
| 87 | 08/22 | 10:00 | 78 | 64 | 64 | 29.89 | WNW | 3 | 0.00 |
| 88 | 08/22 | 09:00 | 74 | 64 | 73 | 29.88 | WSW | 2 | 0.00 |
| 89 | 08/22 | 08:00 | 65 | 64 | 100 | 29.88 | WSW | 0 | 0.00 |
| 90 | 08/22 | 07:00 | 62 | 61 | 99 | 29.89 | WNW | 0 | 0.00 |
| 91 | 08/22 | 06:00 | 63 | 62 | 98 | 29.88 | WSW | 0 | 0.00 |
| 92 | 08/22 | 05:00 | 64 | 63 | 98 | 29.88 | WSW | 0 | 0.00 |
| 93 | 08/22 | 04:00 | 65 | 64 | 97 | 29.87 | W | 0 | 0.00 |
| 94 | 08/22 | 03:00 | 66 | 64 | 94 | 29.87 | SW | 1 | 0.00 |
| 95 | 08/22 | 02:00 | 67 | 64 | 92 | 29.87 | WSW | 0 | 0.00 |
| 96 | 08/22 | 01:00 | 69 | 64 | 86 | 29.88 | WSW | 1 | 0.00 |
| 97 | 08/22 | 00:00 | 71 | 66 | 85 | 29.88 | SW | 0 | 0.00 |